Time;durP1;ratioP1;P1;durP2;ratioP2;P2;SDS_P1;SDS_P2;PMS_P1;PMS_P2;Temp;Humidity;BMP_temperature;BMP_pressure;BME280_temperature;BME280_humidity;BME280_pressure;Samples;Min_cycle;Max_cycle;Signal;HPM_P1;HPM_P2
2021/01/07 00:01:12;;;;;;;15.27;9.30;;;;;;;3.13;100.00;102056.22;1806285;79;26235;-82
2021/01/07 00:03:42;;;;;;;13.77;9.33;;;;;;;3.08;100.00;102051.87;1806296;79;26682;-81
2021/01/07 00:06:13;;;;;;;13.97;9.60;;;;;;;3.05;100.00;102055.03;1806255;79;26236;-82
2021/01/07 00:08:44;;;;;;;13.00;8.53;;;;;;;3.01;100.00;102055.12;1806277;79;26545;-82
2021/01/07 00:11:13;;;;;;;12.03;8.67;;;;;;;2.93;100.00;102051.72;1806272;79;26317;-81
2021/01/07 00:13:43;;;;;;;12.20;8.47;;;;;;;2.86;100.00;102043.48;1806230;79;26236;-81
2021/01/07 00:16:13;;;;;;;12.70;9.07;;;;;;;2.82;100.00;102044.94;1806243;79;26232;-81
2021/01/07 00:18:43;;;;;;;14.00;9.13;;;;;;;2.96;100.00;102047.19;1806277;79;26305;-81
2021/01/07 00:21:14;;;;;;;13.67;8.57;;;;;;;3.01;100.00;102046.05;1806364;79;26772;-81
2021/01/07 00:23:44;;;;;;;12.80;8.87;;;;;;;3.06;100.00;102046.27;1806396;78;26381;-81
2021/01/07 00:26:13;;;;;;;13.83;8.63;;;;;;;3.05;100.00;102046.80;1806673;79;26216;-81
2021/01/07 00:28:43;;;;;;;12.23;8.47;;;;;;;3.08;100.00;102046.94;1806519;79;26227;-81
2021/01/07 00:31:13;;;;;;;13.00;9.13;;;;;;;3.07;100.00;102045.23;1806334;79;26301;-81
2021/01/07 00:33:43;;;;;;;14.33;9.37;;;;;;;3.02;100.00;102043.63;1806293;79;26742;-81
2021/01/07 00:36:17;;;;;;;12.83;9.23;;;;;;;3.02;100.00;102049.97;1806264;79;26224;-81
2021/01/07 00:38:48;;;;;;;13.50;9.43;;;;;;;2.99;100.00;102046.80;1806296;79;26228;-82
2021/01/07 00:41:19;;;;;;;13.50;9.20;;;;;;;3.04;100.00;102048.37;1806235;79;26267;-82
2021/01/07 00:43:49;;;;;;;14.40;9.43;;;;;;;3.10;100.00;102048.92;1806311;79;26656;-81
2021/01/07 00:46:19;;;;;;;14.37;9.57;;;;;;;3.15;100.00;102052.75;1806234;79;26306;-82
2021/01/07 00:48:49;;;;;;;14.73;9.13;;;;;;;3.11;100.00;102045.98;1806086;79;26683;-82
2021/01/07 00:51:19;;;;;;;13.93;9.53;;;;;;;3.12;100.00;102045.47;1806302;79;26220;-81
2021/01/07 00:53:49;;;;;;;14.77;9.63;;;;;;;2.98;100.00;102047.84;1806247;79;26781;-81
2021/01/07 00:56:19;;;;;;;16.27;10.20;;;;;;;3.00;100.00;102049.84;1806269;79;26244;-81
2021/01/07 00:58:49;;;;;;;12.70;9.10;;;;;;;3.18;100.00;102036.38;1806337;79;26278;-81
2021/01/07 01:01:18;;;;;;;15.37;9.60;;;;;;;3.20;100.00;102038.41;1806300;79;26306;-80
2021/01/07 01:03:48;;;;;;;14.40;9.97;;;;;;;3.18;100.00;102035.86;1806281;79;26302;-81
2021/01/07 01:06:18;;;;;;;13.80;9.27;;;;;;;3.11;100.00;102035.53;1806240;79;26369;-81
2021/01/07 01:08:48;;;;;;;13.70;9.10;;;;;;;3.02;100.00;102042.25;1806181;79;26307;-81
2021/01/07 01:11:18;;;;;;;14.23;9.07;;;;;;;2.89;100.00;102040.84;1806226;79;26753;-81
2021/01/07 01:13:48;;;;;;;12.93;8.23;;;;;;;2.90;100.00;102028.81;1806197;79;26306;-81
2021/01/07 01:16:18;;;;;;;13.77;9.60;;;;;;;2.77;100.00;102034.25;1806307;79;26235;-81
2021/01/07 01:18:49;;;;;;;13.57;8.20;;;;;;;2.71;100.00;102043.61;1806120;79;26347;-82
2021/01/07 01:21:19;;;;;;;15.73;8.60;;;;;;;2.70;100.00;102042.44;1806190;79;26305;-82
2021/01/07 01:23:49;;;;;;;13.23;8.80;;;;;;;2.56;100.00;102038.81;1806111;78;26338;-81
2021/01/07 01:26:20;;;;;;;10.53;7.87;;;;;;;2.38;100.00;102040.39;1806214;79;26228;-82
2021/01/07 01:28:50;;;;;;;11.27;8.13;;;;;;;2.46;100.00;102038.33;1806195;79;26317;-80
2021/01/07 01:31:20;;;;;;;14.67;9.47;;;;;;;2.62;100.00;102035.76;1806187;79;26220;-81
2021/01/07 01:33:50;;;;;;;16.40;9.50;;;;;;;2.59;100.00;102035.66;1806221;79;26313;-80
2021/01/07 01:36:26;;;;;;;13.13;9.33;;;;;;;2.67;100.00;102035.48;1806274;79;26643;-80
2021/01/07 01:38:56;;;;;;;15.70;9.60;;;;;;;2.67;100.00;102036.00;1806307;79;26663;-81
2021/01/07 01:41:26;;;;;;;15.33;9.93;;;;;;;2.58;100.00;102031.73;1806244;79;26259;-81
2021/01/07 01:43:56;;;;;;;15.97;10.30;;;;;;;2.74;100.00;102032.22;1806227;79;26632;-81
2021/01/07 01:46:26;;;;;;;15.97;10.17;;;;;;;2.65;100.00;102028.52;1806195;79;26256;-82
2021/01/07 01:48:56;;;;;;;15.33;10.70;;;;;;;2.64;100.00;102035.05;1806265;79;26722;-80
2021/01/07 01:51:26;;;;;;;19.10;12.40;;;;;;;2.56;100.00;102032.48;1806263;79;26699;-82
2021/01/07 01:53:56;;;;;;;21.70;12.33;;;;;;;2.57;100.00;102043.22;1806373;79;26275;-83
2021/01/07 01:56:28;;;;;;;18.70;11.40;;;;;;;2.70;100.00;102038.32;1806244;79;26656;-82
2021/01/07 01:59:00;;;;;;;18.73;12.27;;;;;;;2.75;100.00;102038.04;1806211;79;26321;-80
2021/01/07 02:01:30;;;;;;;17.97;12.43;;;;;;;2.80;100.00;102034.68;1806195;79;26308;-81
2021/01/07 02:04:00;;;;;;;18.13;11.80;;;;;;;2.72;100.00;102037.09;1806320;79;26386;-81
2021/01/07 02:06:32;;;;;;;20.60;12.47;;;;;;;2.66;100.00;102039.78;1806479;79;26212;-80
2021/01/07 02:09:04;;;;;;;18.53;11.53;;;;;;;2.81;100.00;102041.02;1806358;79;26702;-80
2021/01/07 02:11:34;;;;;;;16.93;10.83;;;;;;;2.56;100.00;102042.92;1806294;79;26286;-80
2021/01/07 02:14:06;;;;;;;17.07;11.17;;;;;;;2.82;100.00;102042.72;1806245;79;26325;-80
2021/01/07 02:16:36;;;;;;;20.60;12.27;;;;;;;2.77;100.00;102047.45;1806244;79;26236;-81
2021/01/07 02:19:06;;;;;;;17.30;10.83;;;;;;;2.79;100.00;102043.11;1806172;79;26722;-81
2021/01/07 02:21:39;;;;;;;19.70;11.93;;;;;;;2.75;100.00;102041.30;1806254;79;26307;-81
2021/01/07 02:24:10;;;;;;;18.73;11.53;;;;;;;2.65;100.00;102049.09;1806214;78;26361;-80
2021/01/07 02:26:42;;;;;;;18.67;10.63;;;;;;;2.69;100.00;102051.74;1806185;79;26316;-79
2021/01/07 02:29:12;;;;;;;16.90;10.83;;;;;;;2.71;100.00;102052.37;1806164;79;26306;-82
2021/01/07 02:31:42;;;;;;;17.63;11.30;;;;;;;2.68;100.00;102049.52;1806246;79;26671;-82
2021/01/07 02:34:12;;;;;;;19.77;11.80;;;;;;;2.77;100.00;102042.48;1806113;79;26236;-82
2021/01/07 02:36:42;;;;;;;21.27;12.20;;;;;;;2.78;100.00;102037.33;1806065;79;26309;-82
2021/01/07 02:39:12;;;;;;;20.23;11.83;;;;;;;2.79;100.00;102035.73;1806189;79;26356;-81
2021/01/07 02:41:49;;;;;;;21.67;12.17;;;;;;;2.75;100.00;102039.41;1806208;78;26268;-82
2021/01/07 02:44:20;;;;;;;18.13;11.70;;;;;;;2.72;100.00;102036.23;1806207;79;26236;-82
2021/01/07 02:46:51;;;;;;;22.27;12.60;;;;;;;2.60;100.00;102033.77;1806146;79;26737;-81
2021/01/07 02:49:21;;;;;;;19.50;11.93;;;;;;;2.71;100.00;102034.02;1806190;79;26752;-82
2021/01/07 02:51:51;;;;;;;19.93;11.83;;;;;;;2.68;100.00;102022.09;1806194;79;26639;-82
2021/01/07 02:54:21;;;;;;;17.53;11.43;;;;;;;2.66;100.00;102022.80;1806144;79;26212;-83
2021/01/07 02:56:52;;;;;;;19.60;11.90;;;;;;;2.63;100.00;102023.74;1806132;79;26764;-82
2021/01/07 02:59:21;;;;;;;20.00;12.40;;;;;;;2.56;100.00;102023.73;1806072;79;26216;-80
2021/01/07 03:01:51;;;;;;;22.43;13.20;;;;;;;2.55;100.00;102025.30;1806054;79;26372;-81
2021/01/07 03:04:21;;;;;;;20.27;12.30;;;;;;;2.46;100.00;102026.51;1806128;79;26224;-82
2021/01/07 03:06:51;;;;;;;18.47;11.67;;;;;;;2.58;100.00;102030.36;1806193;79;26647;-81
2021/01/07 03:09:22;;;;;;;22.80;11.87;;;;;;;2.63;100.00;102019.63;1806134;79;26303;-81
2021/01/07 03:11:52;;;;;;;19.70;12.07;;;;;;;2.61;100.00;102010.22;1806117;79;26279;-81
2021/01/07 03:14:22;;;;;;;21.53;12.17;;;;;;;2.59;100.00;102013.71;1806117;79;26714;-81
2021/01/07 03:16:52;;;;;;;25.27;13.27;;;;;;;2.58;100.00;102009.79;1806154;79;26221;-82
2021/01/07 03:19:22;;;;;;;21.37;13.27;;;;;;;2.69;100.00;102005.95;1806156;79;26267;-81
2021/01/07 03:21:51;;;;;;;23.10;12.93;;;;;;;2.57;100.00;102010.83;1806164;79;26263;-81
2021/01/07 03:24:21;;;;;;;20.60;12.10;;;;;;;2.59;100.00;102008.23;1806144;78;26283;-81
2021/01/07 03:26:51;;;;;;;18.60;11.43;;;;;;;2.61;100.00;102008.84;1806138;79;26227;-82
2021/01/07 03:29:21;;;;;;;19.40;11.73;;;;;;;2.63;100.00;102005.91;1806131;79;26663;-82
2021/01/07 03:31:51;;;;;;;21.93;12.00;;;;;;;2.70;100.00;101999.91;1806139;79;26294;-82
2021/01/07 03:34:21;;;;;;;19.80;11.13;;;;;;;2.67;100.00;102008.56;1806152;79;26224;-82
2021/01/07 03:36:51;;;;;;;18.90;11.07;;;;;;;2.71;100.00;102009.33;1806183;79;26286;-82
2021/01/07 03:39:21;;;;;;;17.70;11.47;;;;;;;2.72;100.00;102009.66;1806165;79;26318;-82
2021/01/07 03:41:51;;;;;;;19.27;11.33;;;;;;;2.79;100.00;102005.55;1806095;77;26236;-82
2021/01/07 03:44:21;;;;;;;20.07;11.53;;;;;;;2.81;100.00;102010.31;1806144;79;26290;-82
2021/01/07 03:46:51;;;;;;;23.33;12.17;;;;;;;2.75;100.00;102014.72;1806165;79;26228;-81
2021/01/07 03:49:21;;;;;;;22.30;13.50;;;;;;;2.67;100.00;102014.91;1806164;79;26205;-82
2021/01/07 03:51:50;;;;;;;20.27;12.03;;;;;;;2.67;100.00;102006.67;1806128;79;26213;-81
2021/01/07 03:54:20;;;;;;;19.97;11.73;;;;;;;2.70;100.00;102010.37;1806059;79;26302;-81
2021/01/07 03:56:50;;;;;;;19.43;12.43;;;;;;;2.71;100.00;102007.10;1806217;79;26302;-81
2021/01/07 03:59:20;;;;;;;23.33;13.50;;;;;;;2.69;100.00;102004.59;1806359;79;26652;-81
2021/01/07 04:01:50;;;;;;;19.93;12.33;;;;;;;2.69;100.00;102010.59;1806277;79;26287;-81
2021/01/07 04:04:20;;;;;;;22.63;13.07;;;;;;;2.73;100.00;102007.76;1806193;79;26655;-81
2021/01/07 04:06:50;;;;;;;20.47;12.97;;;;;;;2.70;100.00;102000.77;1806241;79;26692;-81
2021/01/07 04:09:19;;;;;;;21.37;12.27;;;;;;;2.77;100.00;102008.19;1806240;79;26279;-81
2021/01/07 04:11:49;;;;;;;23.80;13.50;;;;;;;2.77;100.00;101993.95;1806186;79;26231;-80
2021/01/07 04:14:19;;;;;;;22.67;12.97;;;;;;;2.69;100.00;102002.36;1806315;79;26301;-82
2021/01/07 04:16:49;;;;;;;23.30;13.83;;;;;;;2.71;100.00;102002.47;1806226;79;26784;-81
2021/01/07 04:19:19;;;;;;;24.63;13.90;;;;;;;2.57;100.00;102002.60;1806271;79;26220;-81
2021/01/07 04:21:49;;;;;;;22.70;13.87;;;;;;;2.66;100.00;102002.75;1806253;79;26220;-82
2021/01/07 04:24:19;;;;;;;23.83;13.53;;;;;;;2.72;100.00;101993.19;1806216;78;26259;-82
2021/01/07 04:26:50;;;;;;;22.10;13.03;;;;;;;2.69;100.00;101998.25;1806328;79;26766;-81
2021/01/07 04:29:20;;;;;;;23.67;13.87;;;;;;;2.63;100.00;102001.80;1806233;79;26656;-81
2021/01/07 04:31:50;;;;;;;22.17;13.00;;;;;;;2.64;100.00;101998.02;1806256;79;26251;-81
2021/01/07 04:34:20;;;;;;;24.27;14.57;;;;;;;2.64;100.00;101993.38;1806266;79;26313;-81
2021/01/07 04:36:50;;;;;;;24.93;14.47;;;;;;;2.52;100.00;101996.91;1806172;79;26228;-81
2021/01/07 04:39:20;;;;;;;22.33;14.80;;;;;;;2.51;100.00;101993.84;1806277;79;26636;-81
2021/01/07 04:41:50;;;;;;;22.97;14.50;;;;;;;2.57;100.00;101999.86;1806313;79;26659;-81
2021/01/07 04:44:21;;;;;;;24.17;15.50;;;;;;;2.58;100.00;102001.04;1806242;77;26456;-81
2021/01/07 04:46:51;;;;;;;22.70;14.40;;;;;;;2.48;100.00;101989.59;1806253;79;26655;-81
2021/01/07 04:49:21;;;;;;;26.77;15.27;;;;;;;2.51;100.00;101993.32;1806186;79;26224;-81
2021/01/07 04:51:51;;;;;;;22.93;14.40;;;;;;;2.42;100.00;101989.06;1806200;79;26220;-81
2021/01/07 04:54:22;;;;;;;24.70;15.70;;;;;;;2.50;100.00;101984.77;1806248;79;26228;-81
2021/01/07 04:56:52;;;;;;;26.07;14.70;;;;;;;2.37;100.00;101985.22;1806290;79;26232;-81
2021/01/07 04:59:22;;;;;;;23.00;14.67;;;;;;;2.33;100.00;101980.67;1806281;79;26656;-82
2021/01/07 05:01:52;;;;;;;25.77;14.97;;;;;;;2.40;100.00;101981.55;1794534;79;934666;-82
2021/01/07 05:04:22;;;;;;;27.80;15.27;;;;;;;2.31;100.00;101990.98;1806269;79;26316;-82
2021/01/07 05:06:52;;;;;;;23.97;14.80;;;;;;;2.21;100.00;101995.49;1806241;79;26647;-82
2021/01/07 05:09:23;;;;;;;24.73;14.43;;;;;;;2.30;100.00;102003.03;1806208;79;26333;-82
2021/01/07 05:11:53;;;;;;;26.40;15.10;;;;;;;2.26;100.00;101997.62;1806232;79;26232;-83
2021/01/07 05:14:23;;;;;;;24.43;15.10;;;;;;;2.24;100.00;101988.22;1806238;79;26286;-83
2021/01/07 05:16:54;;;;;;;26.43;14.63;;;;;;;2.25;100.00;101994.03;1806312;79;26235;-84
2021/01/07 05:19:24;;;;;;;25.60;15.03;;;;;;;2.07;100.00;102001.08;1806188;79;26678;-83
2021/01/07 05:21:56;;;;;;;24.80;13.97;;;;;;;2.19;100.00;101995.36;1806182;79;26232;-82
2021/01/07 05:24:25;;;;;;;24.60;14.57;;;;;;;2.19;100.00;102003.05;1806185;78;26263;-83
2021/01/07 05:26:55;;;;;;;26.70;14.67;;;;;;;2.16;100.00;101999.36;1806258;79;26643;-83
2021/01/07 05:29:25;;;;;;;27.83;15.40;;;;;;;2.16;100.00;101996.62;1806184;79;26353;-83
2021/01/07 05:31:56;;;;;;;25.47;15.47;;;;;;;2.19;100.00;101991.24;1806160;79;26243;-83
2021/01/07 05:34:26;;;;;;;25.07;14.97;;;;;;;2.22;100.00;101999.08;1806151;79;26231;-83
2021/01/07 05:36:59;;;;;;;27.00;15.10;;;;;;;2.30;100.00;101994.80;1806227;79;26726;-83
2021/01/07 05:39:35;;;;;;;23.20;14.60;;;;;;;2.24;100.00;101996.97;1806247;79;26217;-82
2021/01/07 05:42:06;;;;;;;21.97;13.77;;;;;;;2.21;100.00;101991.38;1806327;79;26232;-81
2021/01/07 05:44:36;;;;;;;28.80;16.27;;;;;;;2.22;100.00;101996.34;1806211;78;26387;-81
2021/01/07 05:47:07;;;;;;;28.73;15.47;;;;;;;2.13;100.00;101997.55;1806247;79;26216;-81
2021/01/07 05:49:38;;;;;;;27.10;14.83;;;;;;;2.09;100.00;102002.59;1806205;79;26227;-82
2021/01/07 05:52:10;;;;;;;28.37;16.30;;;;;;;2.02;100.00;101993.98;1806245;79;26236;-81
2021/01/07 05:54:43;;;;;;;25.17;14.27;;;;;;;2.09;100.00;102001.74;1806312;79;26220;-82
2021/01/07 05:57:14;;;;;;;24.17;14.53;;;;;;;2.11;100.00;102001.00;1806256;79;26363;-81
2021/01/07 05:59:46;;;;;;;24.07;12.93;;;;;;;2.10;100.00;102005.63;1806277;79;26321;-82
2021/01/07 06:02:18;;;;;;;24.67;14.23;;;;;;;2.20;100.00;101999.80;1806255;79;26232;-83
2021/01/07 06:04:51;;;;;;;25.30;14.57;;;;;;;2.18;100.00;102007.39;1806209;79;26290;-81
2021/01/07 06:07:23;;;;;;;24.57;14.60;;;;;;;2.20;100.00;102006.13;1806268;79;26752;-82
2021/01/07 06:09:55;;;;;;;27.90;15.07;;;;;;;2.23;100.00;102007.60;1806246;79;26801;-81
2021/01/07 06:12:25;;;;;;;30.70;16.27;;;;;;;2.19;100.00;102002.20;1806108;79;26694;-82
2021/01/07 06:14:57;;;;;;;24.33;14.17;;;;;;;2.17;100.00;102002.95;1806170;79;26225;-82
2021/01/07 06:17:30;;;;;;;23.73;14.27;;;;;;;2.04;100.00;102006.98;1806341;79;26232;-82
2021/01/07 06:20:00;;;;;;;26.53;14.23;;;;;;;2.12;100.00;102004.07;1806177;79;26666;-81
2021/01/07 06:22:31;;;;;;;23.17;13.80;;;;;;;2.24;100.00;102006.56;1806229;78;26302;-81
2021/01/07 06:25:03;;;;;;;25.93;14.30;;;;;;;2.11;100.00;102000.48;1806203;79;26661;-82
2021/01/07 06:27:34;;;;;;;25.80;14.53;;;;;;;2.17;100.00;101998.84;1805360;79;26224;-82
2021/01/07 06:30:36;;;;;;;28.27;16.03;;;;;;;2.06;100.00;102003.49;1806236;79;26240;-83
2021/01/07 06:33:17;;;;;;;28.13;15.00;;;;;;;2.04;100.00;101993.27;1776878;79;26654;-83
2021/01/07 06:35:47;;;;;;;26.33;15.03;;;;;;;2.07;100.00;101990.13;1806344;79;26225;-83
2021/01/07 06:38:27;;;;;;;25.50;14.60;;;;;;;1.96;100.00;101992.91;1806236;79;26220;-82
2021/01/07 06:41:03;;;;;;;25.07;14.37;;;;;;;1.91;100.00;101995.92;1806241;79;26231;-82
2021/01/07 06:43:33;;;;;;;28.43;15.07;;;;;;;1.95;100.00;101999.95;1806307;79;26268;-82
2021/01/07 06:46:04;;;;;;;24.83;14.00;;;;;;;1.95;100.00;102002.17;1806168;78;26366;-82
2021/01/07 06:48:37;;;;;;;25.60;14.20;;;;;;;2.00;100.00;101999.69;1806131;79;26227;-81
2021/01/07 06:51:09;;;;;;;27.43;15.10;;;;;;;1.94;100.00;102001.00;1806255;79;26687;-82
2021/01/07 06:53:39;;;;;;;26.80;15.07;;;;;;;2.12;100.00;101995.85;1806259;79;26286;-82
2021/01/07 06:56:22;;;;;;;26.67;14.97;;;;;;;2.02;100.00;101996.73;1806255;79;26651;-82
2021/01/07 06:58:53;;;;;;;25.90;15.40;;;;;;;1.92;100.00;101991.62;1806283;79;26217;-83
2021/01/07 07:01:25;;;;;;;26.73;14.87;;;;;;;1.96;100.00;101988.81;1806222;79;26360;-82
2021/01/07 07:03:56;;;;;;;25.90;15.03;;;;;;;1.80;100.00;101996.79;1806220;79;26228;-81
2021/01/07 07:06:29;;;;;;;26.43;15.17;;;;;;;1.94;100.00;101998.25;1805629;79;26704;-81
2021/01/07 07:09:01;;;;;;;27.93;14.70;;;;;;;1.96;100.00;101998.91;1806278;79;26737;-80
2021/01/07 07:11:32;;;;;;;25.10;13.87;;;;;;;1.81;100.00;102004.48;1803916;79;26302;-81
2021/01/07 07:14:06;;;;;;;25.33;13.40;;;;;;;1.86;100.00;102008.85;1806276;79;26220;-81
2021/01/07 07:16:38;;;;;;;23.93;13.60;;;;;;;1.90;100.00;102009.29;1806267;79;26651;-81
2021/01/07 07:19:11;;;;;;;26.63;15.20;;;;;;;1.85;100.00;102012.63;1806347;79;26644;-82
2021/01/07 07:21:44;;;;;;;25.80;15.47;;;;;;;2.03;100.00;102002.02;1806368;79;26306;-83
2021/01/07 07:24:16;;;;;;;24.80;15.13;;;;;;;1.84;100.00;102009.56;1803870;78;26267;-84
2021/01/07 07:26:46;;;;;;;26.60;15.37;;;;;;;1.96;100.00;102005.77;1806341;79;26231;-82
2021/01/07 07:29:19;;;;;;;28.17;15.70;;;;;;;1.91;100.00;102009.11;1806362;79;26217;-84
2021/01/07 07:31:49;;;;;;;26.13;14.80;;;;;;;1.91;100.00;102010.99;1806324;79;26248;-84
2021/01/07 07:34:22;;;;;;;25.80;14.67;;;;;;;1.79;100.00;102011.55;1806397;79;26311;-83
2021/01/07 07:36:51;;;;;;;27.90;16.17;;;;;;;1.78;100.00;102008.48;1804484;79;26216;-81
2021/01/07 07:39:23;;;;;;;28.73;15.40;;;;;;;1.90;100.00;102013.41;1806325;79;26812;-84
2021/01/07 07:42:09;;;;;;;27.90;16.90;;;;;;;2.01;100.00;102011.50;1806293;79;26707;-80
2021/01/07 07:44:39;;;;;;;28.20;15.33;;;;;;;2.01;100.00;102015.61;1806246;79;26232;-82
2021/01/07 07:47:09;;;;;;;27.73;16.23;;;;;;;1.94;100.00;102016.91;1806311;77;26263;-83
2021/01/07 07:49:39;;;;;;;27.43;16.50;;;;;;;1.96;100.00;102016.73;1806408;79;26749;-82
2021/01/07 07:52:09;;;;;;;25.90;15.83;;;;;;;1.91;100.00;102007.73;1806352;79;26315;-82
2021/01/07 07:54:41;;;;;;;29.13;16.27;;;;;;;1.95;100.00;102015.02;1806341;79;26224;-82
2021/01/07 07:57:11;;;;;;;27.93;16.07;;;;;;;1.96;100.00;102009.36;1806322;79;26699;-83
2021/01/07 07:59:41;;;;;;;29.27;16.60;;;;;;;2.04;100.00;102006.45;1806377;79;26326;-82
2021/01/07 08:02:18;;;;;;;28.63;16.07;;;;;;;1.86;100.00;102012.96;1806372;79;26302;-82
2021/01/07 08:04:48;;;;;;;29.90;16.73;;;;;;;2.02;100.00;102007.69;1806315;79;26239;-83
2021/01/07 08:07:19;;;;;;;30.90;16.30;;;;;;;1.91;100.00;102009.11;1806298;79;26221;-83
2021/01/07 08:09:50;;;;;;;29.10;16.27;;;;;;;1.91;100.00;102014.59;1806280;79;26224;-81
2021/01/07 08:12:19;;;;;;;29.43;16.40;;;;;;;1.96;100.00;102020.31;1806304;79;26231;-81
2021/01/07 08:14:53;;;;;;;31.73;17.13;;;;;;;1.95;100.00;102017.77;1806417;79;26431;-81
2021/01/07 08:17:26;;;;;;;31.07;17.83;;;;;;;1.87;100.00;102018.77;1806463;79;26656;-82
2021/01/07 08:19:55;;;;;;;30.90;17.27;;;;;;;1.99;100.00;102017.16;1806605;79;26298;-81
2021/01/07 08:22:31;;;;;;;29.53;17.30;;;;;;;1.94;100.00;102019.66;1806927;79;26714;-80
2021/01/07 08:25:01;;;;;;;29.47;17.07;;;;;;;2.00;100.00;102023.50;1806260;79;26228;-80
2021/01/07 08:27:33;;;;;;;29.47;17.80;;;;;;;2.09;100.00;102020.92;1806243;79;26243;-80
2021/01/07 08:30:04;;;;;;;28.07;18.20;;;;;;;1.97;100.00;102021.17;1806329;79;26236;-81
2021/01/07 08:32:38;;;;;;;30.23;17.77;;;;;;;1.95;100.00;102026.84;1806326;79;26726;-79
2021/01/07 08:35:11;;;;;;;30.27;17.70;;;;;;;1.98;100.00;102031.05;1806174;79;26293;-80
2021/01/07 08:37:43;;;;;;;29.07;17.37;;;;;;;2.01;100.00;102026.57;1806288;79;26242;-82
2021/01/07 08:40:14;;;;;;;29.40;17.50;;;;;;;1.97;100.00;102036.23;1806569;79;26236;-79
2021/01/07 08:42:44;;;;;;;29.83;17.07;;;;;;;2.05;100.00;102029.23;1806709;79;26770;-81
2021/01/07 08:45:14;;;;;;;31.63;19.07;;;;;;;2.13;100.00;102034.03;1807032;79;26297;-80
2021/01/07 08:47:44;;;;;;;31.07;17.13;;;;;;;2.12;100.00;102035.59;1806285;78;26887;-80
2021/01/07 08:50:16;;;;;;;29.83;17.23;;;;;;;2.14;100.00;102034.88;1806472;79;26232;-81
2021/01/07 08:52:52;;;;;;;28.90;17.03;;;;;;;2.08;100.00;102035.67;1806257;79;26224;-81
2021/01/07 08:55:24;;;;;;;33.03;17.90;;;;;;;2.10;100.00;102032.19;1806238;79;26738;-80
2021/01/07 08:58:03;;;;;;;28.27;16.97;;;;;;;2.14;100.00;102024.73;1802966;79;26303;-80
2021/01/07 09:00:33;;;;;;;28.57;16.57;;;;;;;2.09;100.00;102033.27;1807183;79;26624;-79
2021/01/07 09:03:05;;;;;;;23.80;15.27;;;;;;;2.12;100.00;102030.11;1807056;79;26343;-80
2021/01/07 09:05:35;;;;;;;30.30;16.50;;;;;;;2.17;100.00;102030.36;1806846;79;26216;-80
2021/01/07 09:08:09;;;;;;;28.07;15.87;;;;;;;2.03;100.00;102030.78;1806409;79;26298;-81
2021/01/07 09:10:40;;;;;;;28.67;16.70;;;;;;;2.07;100.00;102028.48;1806806;79;26216;-81
2021/01/07 09:13:23;;;;;;;27.67;15.83;;;;;;;2.15;100.00;102029.17;1806577;79;26236;-81
2021/01/07 09:15:55;;;;;;;26.97;16.03;;;;;;;2.15;100.00;102031.92;1806464;79;26213;-81
2021/01/07 09:18:25;;;;;;;30.20;16.13;;;;;;;2.12;100.00;102026.84;1804132;79;26323;-79
2021/01/07 09:20:55;;;;;;;29.10;15.73;;;;;;;2.06;100.00;102025.42;1806427;79;26290;-80
2021/01/07 09:23:24;;;;;;;24.47;14.63;;;;;;;2.03;100.00;102024.45;1806410;78;26263;-80
2021/01/07 09:25:57;;;;;;;26.23;15.63;;;;;;;2.00;100.00;102032.56;1806302;79;26220;-80
2021/01/07 09:28:27;;;;;;;27.20;14.70;;;;;;;2.01;100.00;102035.61;1806770;79;26298;-82
2021/01/07 09:30:58;;;;;;;25.57;13.57;;;;;;;1.90;100.00;102038.06;1807116;79;26224;-79
2021/01/07 09:33:27;;;;;;;27.63;14.57;;;;;;;1.99;100.00;102030.02;1807892;79;26221;-80
2021/01/07 09:35:57;;;;;;;25.57;14.43;;;;;;;2.05;100.00;102034.19;1808190;79;26326;-80
2021/01/07 09:38:29;;;;;;;24.40;14.37;;;;;;;2.08;100.00;102029.67;1807944;79;26221;-80
2021/01/07 09:40:59;;;;;;;25.83;13.40;;;;;;;2.01;100.00;102031.50;1808429;79;26685;-81
2021/01/07 09:43:30;;;;;;;29.17;14.27;;;;;;;1.93;100.00;102041.24;1808465;79;26337;-81
2021/01/07 09:46:00;;;;;;;25.03;14.00;;;;;;;2.06;100.00;102039.97;1808631;79;26783;-81
2021/01/07 09:48:34;;;;;;;23.77;13.10;;;;;;;2.10;100.00;102038.52;1809083;78;26351;-81
2021/01/07 09:51:07;;;;;;;23.03;12.90;;;;;;;2.04;100.00;102031.12;1807149;79;26218;-82
2021/01/07 09:53:37;;;;;;;22.17;12.67;;;;;;;2.15;100.00;102029.70;1806459;79;26769;-80
2021/01/07 09:56:07;;;;;;;27.20;13.90;;;;;;;2.13;100.00;102027.18;1807274;79;26220;-81
2021/01/07 09:58:38;;;;;;;23.70;13.13;;;;;;;2.16;100.00;102032.25;1806745;79;26275;-81
2021/01/07 10:01:08;;;;;;;23.80;13.23;;;;;;;2.17;100.00;102032.58;1806724;79;26314;-80
2021/01/07 10:03:38;;;;;;;25.60;13.10;;;;;;;2.30;100.00;102035.92;1807216;79;26232;-80
2021/01/07 10:06:10;;;;;;;22.83;14.13;;;;;;;2.38;100.00;102035.76;1807461;79;26648;-81
2021/01/07 10:08:40;;;;;;;23.83;12.53;;;;;;;2.37;100.00;102034.58;1807181;79;26619;-81
2021/01/07 10:11:12;;;;;;;21.13;12.60;;;;;;;2.37;100.00;102034.58;1807039;79;26845;-81
2021/01/07 10:13:42;;;;;;;20.20;12.80;;;;;;;2.32;100.00;102036.55;1807099;79;26342;-80
2021/01/07 10:16:13;;;;;;;22.67;12.90;;;;;;;2.36;100.00;102035.09;1807506;79;26238;-81
2021/01/07 10:18:44;;;;;;;21.93;11.63;;;;;;;2.33;100.00;102037.41;1807685;79;26736;-81
2021/01/07 10:21:17;;;;;;;20.97;11.97;;;;;;;2.27;100.00;102040.42;1807992;79;26306;-81
2021/01/07 10:23:49;;;;;;;19.77;11.23;;;;;;;2.17;100.00;102035.84;1807476;78;26338;-80
2021/01/07 10:26:21;;;;;;;19.23;11.60;;;;;;;2.21;100.00;102035.76;1808520;79;26326;-81
2021/01/07 10:28:51;;;;;;;20.93;11.27;;;;;;;2.18;100.00;102028.77;1808388;79;26241;-81
2021/01/07 10:31:22;;;;;;;19.13;11.77;;;;;;;2.16;100.00;102036.36;1808131;79;26318;-81
2021/01/07 10:33:51;;;;;;;25.37;12.87;;;;;;;2.08;100.00;102039.78;1807298;79;26346;-80
2021/01/07 10:36:23;;;;;;;24.97;12.63;;;;;;;2.03;100.00;102033.53;1745619;82;26423;-80
2021/01/07 10:38:58;;;;;;;20.97;11.53;;;;;;;2.18;100.00;102030.14;1744663;82;26717;-79
2021/01/07 10:41:31;;;;;;;21.43;12.47;;;;;;;2.16;100.00;102030.03;1743987;82;26332;-81
2021/01/07 10:44:04;;;;;;;21.43;13.17;;;;;;;2.11;100.00;102032.00;1744246;82;26715;-81
2021/01/07 10:46:37;;;;;;;22.47;13.13;;;;;;;2.07;100.00;102032.08;1806250;79;26224;-80
2021/01/07 10:49:08;;;;;;;20.23;12.63;;;;;;;2.19;100.00;102033.73;1806344;78;26260;-79
2021/01/07 10:51:49;;;;;;;24.57;13.33;;;;;;;2.12;100.00;102031.48;1806284;79;26235;-77
2021/01/07 10:54:25;;;;;;;23.30;12.23;;;;;;;1.99;100.00;102028.64;1806543;79;26248;-79
2021/01/07 10:57:32;;;;;;;20.63;12.50;;;;;;;2.29;100.00;102023.25;1806781;79;26302;-80
2021/01/07 11:00:08;;;;;;;24.70;12.17;;;;;;;2.26;100.00;102023.67;1803474;79;26245;-80
2021/01/07 11:02:56;;;;;;;23.23;12.47;;;;;;;2.28;100.00;102024.30;1806723;79;26314;-81
2021/01/07 11:05:28;;;;;;;20.57;12.83;;;;;;;2.39;100.00;102028.38;1806891;79;26323;-80
2021/01/07 11:08:07;;;;;;;24.13;12.83;;;;;;;2.35;100.00;102026.58;1806369;79;26247;-79
2021/01/07 11:10:38;;;;;;;21.57;13.43;;;;;;;2.45;100.00;102026.18;1806881;79;26325;-77
2021/01/07 11:13:09;;;;;;;23.07;12.70;;;;;;;2.58;100.00;102015.27;1806619;79;26401;-78
2021/01/07 11:15:44;;;;;;;21.47;12.17;;;;;;;2.77;100.00;102019.16;1806339;79;26316;-81
2021/01/07 11:18:15;;;;;;;19.27;11.40;;;;;;;2.70;100.00;102015.86;1806621;79;26247;-80
2021/01/07 11:20:50;;;;;;;20.43;12.00;;;;;;;2.65;100.00;102014.25;1806705;79;26243;-84
2021/01/07 11:23:21;;;;;;;20.57;12.70;;;;;;;2.57;100.00;102008.09;1806415;78;26333;-81
2021/01/07 11:25:52;;;;;;;21.80;12.17;;;;;;;2.44;100.00;102014.36;1806689;79;26221;-83
2021/01/07 11:28:23;;;;;;;22.20;12.53;;;;;;;2.42;100.00;102008.25;1806309;79;26224;-83